Time;durP1;ratioP1;P1;durP2;ratioP2;P2;SDS_P1;SDS_P2;PMS_P1;PMS_P2;Temp;Humidity;BMP_temperature;BMP_pressure;BME280_temperature;BME280_humidity;BME280_pressure;Samples;Min_cycle;Max_cycle;Signal;HPM_P1;HPM_P2
2022/02/19 00:02:10;;;;;;;11.30;0.73;;;5.80;99.90;;;;;;6146553;23;20014;-80
2022/02/19 00:04:36;;;;;;;9.20;0.60;;;5.80;99.90;;;;;;6121297;23;20029;-80
2022/02/19 00:07:03;;;;;;;6.47;0.50;;;5.80;99.90;;;;;;6148015;23;20068;-78
2022/02/19 00:09:29;;;;;;;20.75;1.15;;;5.80;99.90;;;;;;6146199;23;20078;-80
2022/02/19 00:11:55;;;;;;;11.00;0.60;;;5.80;99.90;;;;;;6121951;23;20096;-80
2022/02/19 00:14:21;;;;;;;8.05;0.60;;;5.80;99.90;;;;;;6146097;23;20106;-81
2022/02/19 00:16:47;;;;;;;8.00;0.70;;;5.80;99.90;;;;;;6121493;23;20164;-78
2022/02/19 00:19:12;;;;;;;10.57;0.55;;;5.80;99.90;;;;;;6145653;23;20498;-77
2022/02/19 00:21:38;;;;;;;12.35;0.77;;;5.80;99.90;;;;;;6121714;23;20453;-78
2022/02/19 00:24:04;;;;;;;15.13;0.68;;;5.80;99.90;;;;;;6146132;23;20021;-77
2022/02/19 00:26:30;;;;;;;6.57;0.50;;;5.90;99.90;;;;;;6122089;23;20025;-78
2022/02/19 00:28:56;;;;;;;8.77;0.60;;;5.70;99.90;;;;;;6146244;23;20181;-80
2022/02/19 00:31:22;;;;;;;10.40;0.70;;;5.90;99.90;;;;;;6146250;23;20019;-79
2022/02/19 00:33:49;;;;;;;8.85;0.60;;;5.80;99.90;;;;;;6146400;23;21172;-81
2022/02/19 00:36:15;;;;;;;5.97;0.43;;;5.80;99.90;;;;;;6146381;23;20040;-80
2022/02/19 00:38:41;;;;;;;8.23;0.68;;;5.80;99.90;;;;;;6121472;23;20020;-78
2022/02/19 00:41:06;;;;;;;7.63;0.40;;;5.70;99.90;;;;;;6121992;23;20010;-78
2022/02/19 00:43:32;;;;;;;9.63;0.70;;;5.80;99.90;;;;;;6145768;23;20423;-78
2022/02/19 00:45:58;;;;;;;8.55;0.60;;;5.80;99.90;;;;;;6121730;23;20005;-83
2022/02/19 00:48:23;;;;;;;9.30;0.50;;;5.70;99.90;;;;;;6145589;23;20100;-79
2022/02/19 00:50:50;;;;;;;10.40;0.60;;;5.80;99.90;;;;;;6121642;23;20583;-78
2022/02/19 00:53:16;;;;;;;7.30;0.50;;;5.80;99.90;;;;;;6146034;23;20560;-80
2022/02/19 00:55:42;;;;;;;12.13;0.63;;;5.70;99.90;;;;;;6121617;23;20013;-79
2022/02/19 00:58:08;;;;;;;9.18;1.00;;;5.70;99.90;;;;;;6121669;23;20020;-81
2022/02/19 01:00:34;;;;;;;15.77;0.68;;;5.70;99.90;;;;;;6121361;23;20088;-79
2022/02/19 01:03:26;;;;;;;8.50;0.40;;;5.70;99.90;;;;;;6126353;23;20410;-80
2022/02/19 01:05:51;;;;;;;9.43;0.98;;;5.60;99.90;;;;;;6145360;23;20017;-79
2022/02/19 01:08:17;;;;;;;8.07;0.60;;;5.60;99.90;;;;;;6146209;23;20006;-78
2022/02/19 01:10:42;;;;;;;8.38;0.60;;;5.60;99.90;;;;;;6145959;23;20093;-79
2022/02/19 01:13:08;;;;;;;11.00;0.88;;;5.60;99.90;;;;;;6145871;23;20421;-81
2022/02/19 01:15:34;;;;;;;14.80;0.57;;;5.60;99.90;;;;;;6144557;23;20005;-78
2022/02/19 01:17:59;;;;;;;12.52;0.50;;;5.70;99.90;;;;;;6121546;23;20021;-79
2022/02/19 01:20:25;;;;;;;12.10;0.80;;;5.70;99.90;;;;;;6145704;23;20013;-79
2022/02/19 01:22:51;;;;;;;12.55;0.43;;;5.70;99.90;;;;;;6120525;23;20464;-80
2022/02/19 01:25:16;;;;;;;14.32;0.50;;;5.70;99.90;;;;;;6121170;23;20013;-79
2022/02/19 01:27:52;;;;;;;18.77;2.05;;;5.70;99.90;;;;;;6098939;23;20002;-80
2022/02/19 01:30:17;;;;;;;10.05;0.60;;;5.70;99.90;;;;;;6096289;23;20010;-81
2022/02/19 01:32:44;;;;;;;8.30;0.50;;;5.60;99.90;;;;;;6096999;23;20100;-79
2022/02/19 01:35:10;;;;;;;13.50;0.95;;;5.60;99.90;;;;;;6122896;23;20037;-79
2022/02/19 01:37:37;;;;;;;10.40;0.75;;;5.60;99.90;;;;;;6098325;23;20025;-78
2022/02/19 01:40:04;;;;;;;16.42;0.68;;;5.60;99.90;;;;;;6098495;23;20013;-79
2022/02/19 01:42:30;;;;;;;13.07;0.93;;;5.60;99.90;;;;;;6098724;23;20012;-78
2022/02/19 01:44:56;;;;;;;10.25;0.65;;;5.60;99.90;;;;;;6122305;23;20017;-79
2022/02/19 01:47:22;;;;;;;8.27;0.43;;;5.60;99.90;;;;;;6123374;23;20351;-78
2022/02/19 01:49:48;;;;;;;16.05;0.75;;;5.60;99.90;;;;;;6122603;23;20088;-79
2022/02/19 01:52:16;;;;;;;11.15;0.70;;;5.70;99.90;;;;;;6098980;23;20009;-80
2022/02/19 01:54:42;;;;;;;9.30;0.60;;;5.60;99.90;;;;;;6122557;23;20028;-78
2022/02/19 01:57:20;;;;;;;12.45;0.75;;;5.60;99.90;;;;;;6101330;23;20339;-81
2022/02/19 02:00:13;;;;;;;10.40;0.50;;;5.60;99.90;;;;;;6103542;23;20017;-79
2022/02/19 02:02:52;;;;;;;12.68;0.47;;;5.60;99.90;;;;;;6122928;23;20010;-79
2022/02/19 02:05:47;;;;;;;8.15;0.50;;;5.60;99.90;;;;;;6112739;23;20024;-79
2022/02/19 02:08:14;;;;;;;14.85;0.68;;;5.60;99.90;;;;;;6122844;23;20391;-78
2022/02/19 02:10:44;;;;;;;9.73;0.52;;;5.60;99.90;;;;;;6099681;23;20055;-78
2022/02/19 02:13:19;;;;;;;8.13;0.50;;;5.60;99.90;;;;;;6100022;23;20092;-78
2022/02/19 02:15:45;;;;;;;11.05;0.50;;;5.60;99.90;;;;;;6097895;23;20391;-78
2022/02/19 02:18:21;;;;;;;7.68;0.52;;;5.60;99.90;;;;;;6100624;23;20404;-77
2022/02/19 02:20:47;;;;;;;5.90;0.70;;;5.60;99.90;;;;;;6122142;23;20020;-77
2022/02/19 02:23:17;;;;;;;8.40;0.40;;;5.60;99.90;;;;;;6103369;23;20166;-79
2022/02/19 02:25:44;;;;;;;11.15;0.55;;;5.60;99.90;;;;;;6122612;23;20009;-80
2022/02/19 02:28:12;;;;;;;8.05;0.35;;;5.60;99.90;;;;;;6122616;23;20017;-78
2022/02/19 02:30:40;;;;;;;9.23;0.40;;;5.60;99.90;;;;;;6122873;23;20001;-80
2022/02/19 02:33:17;;;;;;;9.15;0.30;;;5.60;99.90;;;;;;6124818;23;20045;-78
2022/02/19 02:35:51;;;;;;;10.18;0.60;;;5.60;99.90;;;;;;6146752;23;20013;-78
2022/02/19 02:38:23;;;;;;;4.32;0.40;;;5.60;99.90;;;;;;6124121;23;20031;-78
2022/02/19 02:40:50;;;;;;;5.82;0.30;;;5.50;99.90;;;;;;6146940;23;20009;-80
2022/02/19 02:43:19;;;;;;;5.28;0.40;;;5.60;99.90;;;;;;6147105;23;20017;-78
2022/02/19 02:45:47;;;;;;;8.57;0.63;;;5.60;99.90;;;;;;6121845;23;20089;-81
2022/02/19 02:48:13;;;;;;;6.15;0.63;;;5.60;99.90;;;;;;6123057;23;20014;-80
2022/02/19 02:50:39;;;;;;;8.90;0.40;;;5.50;99.90;;;;;;6122299;23;20497;-79
2022/02/19 02:53:04;;;;;;;6.95;0.52;;;5.60;99.90;;;;;;6122963;23;20022;-79
2022/02/19 02:55:31;;;;;;;7.97;0.40;;;5.50;99.90;;;;;;6122668;23;20439;-78
2022/02/19 02:57:56;;;;;;;9.50;0.47;;;5.60;99.90;;;;;;6122135;23;20020;-80
2022/02/19 03:00:22;;;;;;;7.13;0.30;;;5.50;99.90;;;;;;6122579;23;20009;-78
2022/02/19 03:02:48;;;;;;;7.28;0.40;;;5.60;99.90;;;;;;6122176;23;20497;-78
2022/02/19 03:05:14;;;;;;;4.95;0.40;;;5.60;99.90;;;;;;6122282;23;20018;-78
2022/02/19 03:07:40;;;;;;;7.85;0.30;;;5.60;99.90;;;;;;6121888;23;20060;-79
2022/02/19 03:10:08;;;;;;;8.18;0.40;;;5.60;99.90;;;;;;6123080;23;20332;-78
2022/02/19 03:12:37;;;;;;;4.93;0.50;;;5.60;99.90;;;;;;6121888;23;20422;-81
2022/02/19 03:15:03;;;;;;;5.15;0.22;;;5.60;99.90;;;;;;6122299;23;20080;-79
2022/02/19 03:17:37;;;;;;;5.70;0.30;;;5.50;99.90;;;;;;6122287;23;20009;-80
2022/02/19 03:20:05;;;;;;;5.85;0.38;;;5.50;99.90;;;;;;6147097;23;20018;-81
2022/02/19 03:22:32;;;;;;;5.90;0.60;;;5.50;99.90;;;;;;6122246;23;20072;-79
2022/02/19 03:24:58;;;;;;;5.57;0.30;;;5.50;99.90;;;;;;6097330;23;20315;-79
2022/02/19 03:27:27;;;;;;;9.50;0.35;;;5.50;99.90;;;;;;6121655;23;20383;-77
2022/02/19 03:29:56;;;;;;;4.70;0.30;;;5.50;99.90;;;;;;6076064;23;20013;-80
2022/02/19 03:32:22;;;;;;;7.68;0.40;;;5.60;99.90;;;;;;6097876;23;20016;-82
2022/02/19 03:34:48;;;;;;;6.32;0.70;;;5.60;99.90;;;;;;6097411;23;20077;-78
2022/02/19 03:37:14;;;;;;;9.30;0.55;;;5.60;99.90;;;;;;6097829;23;20010;-79
2022/02/19 03:39:40;;;;;;;10.70;0.50;;;5.50;99.90;;;;;;6122117;23;20032;-80
2022/02/19 03:42:06;;;;;;;9.13;0.50;;;5.50;99.90;;;;;;6122068;23;20017;-78
2022/02/19 03:44:32;;;;;;;10.55;0.38;;;5.60;99.90;;;;;;6121641;23;20017;-78
2022/02/19 03:47:05;;;;;;;11.68;1.15;;;5.60;99.90;;;;;;6122463;23;20091;-79
2022/02/19 03:49:51;;;;;;;11.23;0.50;;;5.50;99.90;;;;;;6081615;23;20024;-78
2022/02/19 03:52:17;;;;;;;10.88;0.50;;;5.50;99.90;;;;;;6122452;23;20009;-79
2022/02/19 03:54:43;;;;;;;12.35;0.70;;;5.60;99.90;;;;;;6096982;23;20080;-78
2022/02/19 03:57:09;;;;;;;7.95;0.60;;;5.50;99.90;;;;;;6096952;23;20016;-80
2022/02/19 03:59:35;;;;;;;8.07;0.40;;;5.50;99.90;;;;;;6097464;23;20431;-79
2022/02/19 04:02:02;;;;;;;12.15;0.50;;;5.50;99.90;;;;;;6097697;23;20010;-78
2022/02/19 04:04:32;;;;;;;7.80;0.50;;;5.50;99.90;;;;;;6097943;23;20334;-78
2022/02/19 04:06:58;;;;;;;5.40;0.50;;;5.50;99.90;;;;;;6097805;23;20100;-80
2022/02/19 04:09:42;;;;;;;8.80;0.40;;;5.50;99.90;;;;;;6125210;23;20334;-79
2022/02/19 04:12:09;;;;;;;7.95;0.60;;;5.50;99.90;;;;;;6121738;23;20330;-80
2022/02/19 04:14:36;;;;;;;8.43;0.50;;;5.50;99.90;;;;;;6097121;23;20104;-81
2022/02/19 04:17:05;;;;;;;11.20;1.17;;;5.40;99.90;;;;;;6098067;23;20485;-78
2022/02/19 04:19:31;;;;;;;9.20;0.70;;;5.50;99.90;;;;;;6097424;23;20072;-79
2022/02/19 04:21:57;;;;;;;15.98;0.60;;;5.40;99.90;;;;;;6122091;23;20029;-79
2022/02/19 04:24:25;;;;;;;9.07;1.15;;;5.40;99.90;;;;;;6115237;23;20473;-79
2022/02/19 04:26:59;;;;;;;9.50;0.52;;;5.40;99.90;;;;;;6123604;23;20096;-78
2022/02/19 04:29:25;;;;;;;7.57;0.43;;;5.40;99.90;;;;;;6146333;23;20099;-78
2022/02/19 04:31:55;;;;;;;12.07;0.77;;;5.40;99.90;;;;;;6147925;23;20039;-79
2022/02/19 04:34:27;;;;;;;12.35;0.60;;;5.40;99.90;;;;;;6123036;23;20742;-78
2022/02/19 04:36:53;;;;;;;8.15;0.60;;;5.40;99.90;;;;;;6121585;23;20009;-78
2022/02/19 04:39:25;;;;;;;7.15;0.57;;;5.50;99.90;;;;;;6122472;23;20010;-78
2022/02/19 04:41:55;;;;;;;10.48;0.70;;;5.40;99.90;;;;;;6122334;23;20023;-78
2022/02/19 04:44:22;;;;;;;10.10;0.50;;;5.40;99.90;;;;;;6121558;23;20009;-78
2022/02/19 04:46:53;;;;;;;11.63;0.50;;;5.40;99.90;;;;;;6122683;23;20088;-78
2022/02/19 04:49:19;;;;;;;8.45;0.65;;;5.40;99.90;;;;;;6121681;23;20094;-78
2022/02/19 04:51:45;;;;;;;9.68;0.70;;;5.40;99.90;;;;;;6121368;23;20408;-78
2022/02/19 04:54:12;;;;;;;9.70;0.45;;;5.50;99.90;;;;;;6145347;23;20382;-78
2022/02/19 04:56:38;;;;;;;6.70;0.45;;;5.40;99.90;;;;;;6145267;23;20013;-78
2022/02/19 04:59:06;;;;;;;11.70;0.50;;;5.40;99.90;;;;;;6122728;23;20017;-77
2022/02/19 05:01:38;;;;;;;8.13;0.40;;;5.50;99.90;;;;;;6122722;23;20100;-78
2022/02/19 05:04:11;;;;;;;9.05;0.60;;;5.40;99.90;;;;;;6122916;23;20096;-80
2022/02/19 05:06:46;;;;;;;11.88;0.75;;;5.40;99.90;;;;;;6146177;23;20221;-78
2022/02/19 05:09:12;;;;;;;9.63;0.50;;;5.40;99.90;;;;;;6144893;23;20024;-80
2022/02/19 05:11:44;;;;;;;8.00;0.52;;;5.40;99.90;;;;;;6122619;23;20095;-79
2022/02/19 05:14:12;;;;;;;9.35;0.45;;;5.40;99.90;;;;;;6145579;23;20049;-79
2022/02/19 05:16:37;;;;;;;7.50;0.60;;;5.40;99.90;;;;;;6121190;23;20427;-79
2022/02/19 05:19:08;;;;;;;14.73;0.70;;;5.50;99.90;;;;;;6122219;23;20037;-81
2022/02/19 05:21:37;;;;;;;8.27;0.40;;;5.50;99.90;;;;;;6121703;23;20013;-78
2022/02/19 05:24:04;;;;;;;10.68;0.68;;;5.40;99.90;;;;;;6120609;23;20257;-80
2022/02/19 05:26:42;;;;;;;8.93;0.50;;;5.40;99.90;;;;;;6123740;23;20056;-78
2022/02/19 05:29:10;;;;;;;8.07;0.65;;;5.30;99.90;;;;;;6146186;23;20017;-80
2022/02/19 05:31:38;;;;;;;8.00;0.82;;;5.30;99.90;;;;;;6121373;23;20033;-78
2022/02/19 05:34:24;;;;;;;9.70;0.50;;;5.30;99.90;;;;;;6125069;23;20049;-79
2022/02/19 05:36:51;;;;;;;9.30;0.40;;;5.40;99.90;;;;;;6118257;23;20013;-77
2022/02/19 05:39:17;;;;;;;8.25;0.52;;;5.40;99.90;;;;;;6120815;23;20461;-79
2022/02/19 05:41:44;;;;;;;14.10;0.80;;;5.40;99.90;;;;;;6145254;23;20013;-79
2022/02/19 05:44:15;;;;;;;8.63;0.77;;;5.40;99.90;;;;;;6145759;23;20009;-79
2022/02/19 05:46:41;;;;;;;8.70;0.40;;;5.40;99.90;;;;;;6120715;23;20009;-79
2022/02/19 05:49:07;;;;;;;7.65;0.60;;;5.30;99.90;;;;;;6145833;23;20006;-80
2022/02/19 05:51:59;;;;;;;12.55;0.60;;;5.30;99.90;;;;;;6125565;23;20102;-79
2022/02/19 05:54:31;;;;;;;8.95;0.60;;;5.20;99.90;;;;;;6121517;23;20027;-80
2022/02/19 05:57:10;;;;;;;4.90;0.50;;;5.20;99.90;;;;;;6146056;23;20040;-79
2022/02/19 05:59:36;;;;;;;9.18;0.40;;;5.10;99.90;;;;;;6145881;23;20020;-80
2022/02/19 06:02:04;;;;;;;2.60;0.30;;;5.00;99.90;;;;;;6145933;23;20447;-79
2022/02/19 06:04:30;;;;;;;6.88;0.50;;;4.90;99.90;;;;;;6145455;23;20013;-81
2022/02/19 06:06:56;;;;;;;14.30;0.50;;;4.90;99.90;;;;;;6120330;23;20013;-76
2022/02/19 06:09:25;;;;;;;5.18;0.30;;;5.00;99.90;;;;;;6122301;23;20044;-80
2022/02/19 06:11:52;;;;;;;10.55;0.75;;;5.10;99.90;;;;;;6120880;23;20009;-79
2022/02/19 06:14:45;;;;;;;9.02;0.40;;;5.20;99.90;;;;;;6145264;23;20130;-78
2022/02/19 06:17:11;;;;;;;12.15;0.50;;;5.20;99.90;;;;;;6121279;23;20005;-79
2022/02/19 06:19:37;;;;;;;7.15;0.40;;;5.30;99.90;;;;;;6121571;23;20075;-80
2022/02/19 06:22:03;;;;;;;8.13;0.68;;;5.20;99.90;;;;;;6121986;23;20826;-79
2022/02/19 06:24:34;;;;;;;;;;;5.20;99.90;;;;;;6146908;23;20024;-78
2022/02/19 06:26:59;;;;;;;7.75;0.50;;;5.20;99.90;;;;;;6147109;23;19908;-79
2022/02/19 06:29:45;;;;;;;11.23;0.50;;;5.20;99.90;;;;;;6146260;23;20006;-79
2022/02/19 06:32:12;;;;;;;7.80;1.00;;;5.20;99.90;;;;;;6123257;23;20060;-80
2022/02/19 06:34:42;;;;;;;8.00;0.40;;;5.20;99.90;;;;;;6121658;23;20031;-79
2022/02/19 06:37:14;;;;;;;8.63;0.55;;;5.20;99.90;;;;;;6147170;23;20081;-79
2022/02/19 06:39:40;;;;;;;6.53;0.40;;;5.20;99.90;;;;;;6122354;23;20009;-81
2022/02/19 06:42:06;;;;;;;7.80;0.40;;;5.20;99.90;;;;;;6121620;23;20461;-79
2022/02/19 06:44:52;;;;;;;9.93;0.90;;;5.20;99.90;;;;;;6147571;23;20005;-79
2022/02/19 06:47:17;;;;;;;11.70;0.60;;;5.10;99.90;;;;;;6122956;23;20083;-79
2022/02/19 06:49:43;;;;;;;7.70;0.40;;;5.10;99.90;;;;;;6121671;23;20451;-79
2022/02/19 06:52:10;;;;;;;9.55;0.60;;;5.00;99.90;;;;;;6122675;23;20036;-79
2022/02/19 06:54:36;;;;;;;8.82;1.10;;;5.00;99.90;;;;;;6121913;23;20025;-80
2022/02/19 06:57:02;;;;;;;7.15;0.50;;;5.10;99.90;;;;;;6122272;23;20060;-80
2022/02/19 06:59:28;;;;;;;7.95;0.50;;;5.10;99.90;;;;;;6122318;23;20489;-79
2022/02/19 07:01:53;;;;;;;5.82;0.43;;;5.10;99.90;;;;;;6146944;23;20036;-79
2022/02/19 07:04:20;;;;;;;10.48;0.40;;;5.10;99.90;;;;;;6145924;23;20015;-79
2022/02/19 07:06:52;;;;;;;9.65;0.43;;;5.10;99.90;;;;;;6157297;23;20290;-79
2022/02/19 07:09:18;;;;;;;11.50;0.93;;;5.10;99.90;;;;;;6121620;23;20056;-79
2022/02/19 07:11:44;;;;;;;8.60;0.40;;;5.10;99.90;;;;;;6145103;23;20100;-79
2022/02/19 07:14:11;;;;;;;5.57;0.40;;;5.10;99.90;;;;;;6121950;23;20025;-81
2022/02/19 07:16:36;;;;;;;7.63;0.50;;;5.10;99.90;;;;;;6121995;23;20014;-79
2022/02/19 07:19:02;;;;;;;10.88;0.70;;;5.10;99.90;;;;;;6121748;23;20027;-79
2022/02/19 07:21:28;;;;;;;7.95;0.43;;;5.10;99.90;;;;;;6121295;23;20128;-79
2022/02/19 07:23:54;;;;;;;9.05;0.73;;;5.10;99.90;;;;;;6124880;23;20053;-79
2022/02/19 07:26:25;;;;;;;10.57;0.80;;;5.10;99.90;;;;;;6122162;23;20021;-79
2022/02/19 07:28:53;;;;;;;6.47;0.50;;;5.10;99.90;;;;;;6122047;23;20072;-78
2022/02/19 07:31:20;;;;;;;7.45;0.40;;;5.10;99.90;;;;;;6122715;23;20012;-80
2022/02/19 07:33:46;;;;;;;11.20;0.82;;;5.10;99.90;;;;;;6119336;23;20025;-77
2022/02/19 07:36:18;;;;;;;8.55;0.60;;;5.10;99.90;;;;;;6122790;23;20430;-80
2022/02/19 07:38:44;;;;;;;16.65;0.77;;;5.20;99.90;;;;;;6120457;23;20017;-79
2022/02/19 07:41:13;;;;;;;9.30;0.50;;;5.20;99.90;;;;;;6121354;23;20066;-80
2022/02/19 07:44:02;;;;;;;12.68;0.93;;;5.20;99.90;;;;;;6125356;23;20013;-80
2022/02/19 07:46:43;;;;;;;7.60;0.40;;;5.20;99.90;;;;;;6124534;23;20029;-80
2022/02/19 07:58:18;;;;;;;9.60;0.57;;;5.30;99.90;;;;;;6145310;23;20615;-79
2022/02/19 08:01:07;;;;;;;5.07;0.30;;;5.30;99.90;;;;;;6145043;23;20013;-80
2022/02/19 08:03:44;;;;;;;4.50;0.32;;;5.30;99.90;;;;;;6144335;23;20028;-81
2022/02/19 08:06:10;;;;;;;10.60;0.55;;;5.30;99.90;;;;;;6121063;23;20033;-80
2022/02/19 08:08:39;;;;;;;10.60;0.43;;;5.30;99.90;;;;;;6121238;23;20013;-80
2022/02/19 08:11:15;;;;;;;10.27;0.40;;;5.30;99.90;;;;;;6122957;23;20013;-79
2022/02/19 08:13:41;;;;;;;13.88;0.50;;;5.40;99.90;;;;;;6120584;23;20071;-80
2022/02/19 08:16:10;;;;;;;7.47;0.70;;;5.40;99.90;;;;;;6144701;23;20017;-80
2022/02/19 08:18:37;;;;;;;6.20;0.40;;;5.40;99.90;;;;;;6120984;23;20017;-80
2022/02/19 08:21:04;;;;;;;10.65;0.45;;;5.40;99.90;;;;;;6144349;23;20006;-80
2022/02/19 08:23:30;;;;;;;12.20;0.57;;;5.40;99.90;;;;;;6145312;23;20051;-80
2022/02/19 08:25:55;;;;;;;6.82;0.50;;;5.40;99.90;;;;;;6120462;23;20105;-79
2022/02/19 08:28:21;;;;;;;8.00;0.50;;;5.40;99.90;;;;;;6121660;23;20013;-80
2022/02/19 08:30:47;;;;;;;11.70;0.40;;;5.40;99.90;;;;;;6119398;23;20524;-79
2022/02/19 08:33:13;;;;;;;7.93;0.57;;;5.40;99.90;;;;;;6119409;23;20069;-81
2022/02/19 08:35:40;;;;;;;7.30;0.40;;;5.40;99.90;;;;;;6093684;23;20005;-80
2022/02/19 08:38:07;;;;;;;7.30;0.45;;;5.40;99.90;;;;;;6119015;23;20013;-80
2022/02/19 08:40:33;;;;;;;6.43;0.32;;;5.40;99.90;;;;;;6095295;23;20461;-79
2022/02/19 08:42:59;;;;;;;8.77;0.50;;;5.40;99.90;;;;;;6096145;23;20144;-79
2022/02/19 08:45:25;;;;;;;8.63;0.50;;;5.40;99.90;;;;;;6119145;23;20419;-80
2022/02/19 08:48:01;;;;;;;5.75;0.40;;;5.50;99.90;;;;;;6118627;23;20041;-81
2022/02/19 08:50:28;;;;;;;5.63;0.30;;;5.50;99.90;;;;;;6117643;23;20010;-79
2022/02/19 08:52:54;;;;;;;4.65;0.40;;;5.50;99.90;;;;;;6094849;23;20048;-81
2022/02/19 08:55:20;;;;;;;8.23;0.65;;;5.60;99.90;;;;;;6119713;23;20008;-79
2022/02/19 08:57:46;;;;;;;6.15;0.47;;;5.60;99.90;;;;;;6145931;23;20442;-79
2022/02/19 09:00:13;;;;;;;10.57;0.50;;;5.60;99.90;;;;;;6117414;23;20386;-81
2022/02/19 09:02:40;;;;;;;9.90;0.40;;;5.70;99.90;;;;;;6144352;23;20306;-79
2022/02/19 09:05:07;;;;;;;6.63;0.47;;;5.80;99.90;;;;;;6071259;23;20447;-80
2022/02/19 09:07:34;;;;;;;7.70;0.70;;;5.80;99.90;;;;;;6118579;23;20009;-79
2022/02/19 09:10:00;;;;;;;8.13;0.50;;;5.80;99.90;;;;;;6120085;23;20363;-80
2022/02/19 09:12:26;;;;;;;6.45;0.60;;;5.90;99.90;;;;;;6120964;23;20076;-80
2022/02/19 09:14:51;;;;;;;8.73;0.50;;;5.70;99.90;;;;;;6095080;23;20028;-80
2022/02/19 09:17:17;;;;;;;6.28;0.70;;;5.70;99.90;;;;;;6120585;23;20466;-81
2022/02/19 09:19:43;;;;;;;6.85;0.40;;;5.70;99.90;;;;;;6095609;23;20009;-80
2022/02/19 09:22:09;;;;;;;5.82;0.30;;;5.80;99.90;;;;;;6071806;23;20494;-79
2022/02/19 09:24:34;;;;;;;5.93;0.40;;;5.80;99.90;;;;;;6140493;23;20021;-81
2022/02/19 09:27:01;;;;;;;7.38;0.52;;;5.80;99.90;;;;;;6146078;23;20013;-80
2022/02/19 09:29:31;;;;;;;6.57;0.45;;;5.70;99.90;;;;;;6118836;23;20138;-80
2022/02/19 09:31:57;;;;;;;12.70;0.50;;;5.80;99.90;;;;;;6119871;23;20049;-79
2022/02/19 09:34:23;;;;;;;7.65;0.50;;;5.80;99.90;;;;;;6145368;23;20419;-79
2022/02/19 09:36:50;;;;;;;5.60;0.60;;;5.90;99.90;;;;;;6118877;23;20017;-80
2022/02/19 09:39:16;;;;;;;4.72;0.35;;;5.90;99.90;;;;;;6144600;23;20013;-80
2022/02/19 09:42:21;;;;;;;6.85;0.40;;;6.10;99.90;;;;;;6144260;23;20017;-78
2022/02/19 09:44:48;;;;;;;6.68;0.60;;;6.50;99.90;;;;;;6029385;23;20408;-79
2022/02/19 09:47:16;;;;;;;5.78;0.50;;;6.60;99.90;;;;;;6030216;23;20405;-79
2022/02/19 09:49:42;;;;;;;7.03;0.52;;;6.40;99.90;;;;;;6030512;23;20025;-81
2022/02/19 09:52:08;;;;;;;4.60;0.30;;;6.40;99.90;;;;;;6007688;23;20007;-80
2022/02/19 09:54:33;;;;;;;3.80;0.30;;;6.30;99.90;;;;;;6006567;23;20452;-79
2022/02/19 09:56:59;;;;;;;9.95;1.17;;;6.30;99.90;;;;;;5986091;23;20087;-81
2022/02/19 09:59:25;;;;;;;5.72;0.40;;;6.30;99.90;;;;;;6009135;23;20143;-80
2022/02/19 10:02:09;;;;;;;7.07;0.52;;;6.50;99.90;;;;;;6008446;23;20011;-80
2022/02/19 10:04:36;;;;;;;3.35;0.38;;;6.60;99.90;;;;;;6007973;23;20059;-80
2022/02/19 10:07:16;;;;;;;6.90;0.60;;;7.00;99.90;;;;;;6008541;23;20010;-78
2022/02/19 10:09:46;;;;;;;7.90;0.40;;;7.30;99.90;;;;;;6008771;23;20074;-79
2022/02/19 10:12:14;;;;;;;6.82;0.40;;;7.30;99.90;;;;;;6009318;23;20018;-80
2022/02/19 10:14:42;;;;;;;4.53;0.30;;;7.60;99.90;;;;;;6044871;23;20482;-80
2022/02/19 10:17:17;;;;;;;7.88;0.70;;;7.70;99.90;;;;;;6146450;23;20504;-82
2022/02/19 10:20:05;;;;;;;5.15;0.40;;;7.20;99.90;;;;;;6146106;23;20010;-81
2022/02/19 10:22:41;;;;;;;5.85;0.40;;;6.90;99.90;;;;;;6146047;23;20013;-80
2022/02/19 10:25:13;;;;;;;6.13;0.63;;;6.90;99.90;;;;;;6097637;23;20021;-80
2022/02/19 10:28:07;;;;;;;7.43;0.80;;;7.00;99.90;;;;;;6120995;23;20013;-79
2022/02/19 10:30:34;;;;;;;5.88;0.50;;;6.90;99.90;;;;;;6147822;23;20506;-79
2022/02/19 10:33:06;;;;;;;5.10;0.60;;;7.10;99.90;;;;;;6096797;23;20018;-81
2022/02/19 10:35:38;;;;;;;10.68;0.60;;;7.00;99.90;;;;;;6097788;23;20048;-81
2022/02/19 10:38:14;;;;;;;8.15;0.50;;;6.80;99.90;;;;;;6121374;23;20009;-80
2022/02/19 10:40:42;;;;;;;3.45;0.40;;;6.90;99.90;;;;;;6107463;23;20370;-79
2022/02/19 10:43:10;;;;;;;7.75;0.50;;;7.10;99.90;;;;;;6094456;23;20009;-80
2022/02/19 10:45:49;;;;;;;6.82;0.50;;;6.80;99.90;;;;;;6095580;23;20342;-83
2022/02/19 10:48:26;;;;;;;8.33;0.40;;;7.00;99.90;;;;;;6120967;23;20459;-82
2022/02/19 10:50:52;;;;;;;8.18;0.60;;;7.20;99.90;;;;;;6091946;23;20772;-81
2022/02/19 10:53:26;;;;;;;6.22;0.60;;;6.90;99.90;;;;;;6095553;23;20021;-81
2022/02/19 10:55:54;;;;;;;4.47;0.32;;;6.80;99.90;;;;;;6119069;23;20334;-82
2022/02/19 10:58:20;;;;;;;6.43;0.90;;;6.60;99.90;;;;;;6095826;23;20092;-80
2022/02/19 11:00:46;;;;;;;9.70;0.50;;;6.70;99.90;;;;;;6118938;23;20446;-80
2022/02/19 11:03:13;;;;;;;6.32;0.85;;;6.70;99.90;;;;;;6119828;23;20013;-80
2022/02/19 11:05:40;;;;;;;15.73;1.08;;;7.00;99.90;;;;;;6095520;23;20020;-81
2022/02/19 11:08:07;;;;;;;8.30;0.73;;;7.20;99.90;;;;;;6095399;23;20051;-79
2022/02/19 11:10:34;;;;;;;4.22;0.57;;;7.30;99.90;;;;;;6095101;23;20013;-81
2022/02/19 11:13:01;;;;;;;12.02;0.57;;;7.50;99.90;;;;;;6095140;23;20096;-82
2022/02/19 11:15:27;;;;;;;6.53;0.40;;;7.50;99.90;;;;;;6119744;23;20028;-80
2022/02/19 11:17:54;;;;;;;6.82;0.50;;;7.50;99.90;;;;;;6119280;23;20009;-79
2022/02/19 11:20:23;;;;;;;6.68;0.30;;;7.30;99.90;;;;;;6095882;23;20064;-80
2022/02/19 11:22:49;;;;;;;7.88;0.43;;;7.10;99.90;;;;;;6119266;23;20048;-81
2022/02/19 11:25:19;;;;;;;7.70;0.70;;;6.80;99.90;;;;;;6097175;23;20017;-82
2022/02/19 11:27:53;;;;;;;5.75;0.40;;;6.70;99.90;;;;;;6095948;23;20529;-81
2022/02/19 11:30:20;;;;;;;7.22;0.50;;;6.80;99.90;;;;;;6096890;23;20111;-81
2022/02/19 11:32:46;;;;;;;10.73;0.50;;;6.80;99.90;;;;;;6146118;23;20017;-81
2022/02/19 11:35:12;;;;;;;6.38;0.60;;;7.10;99.90;;;;;;6095842;23;20071;-82
2022/02/19 11:37:47;;;;;;;5.80;0.40;;;7.50;99.90;;;;;;6120261;23;20142;-81
2022/02/19 11:40:15;;;;;;;3.90;0.30;;;7.90;99.90;;;;;;6120266;23;20016;-82
2022/02/19 11:42:45;;;;;;;4.85;0.65;;;8.00;99.90;;;;;;6095029;23;20494;-81
2022/02/19 11:45:35;;;;;;;7.15;1.13;;;7.90;99.90;;;;;;6120662;23;20013;-81
2022/02/19 11:48:06;;;;;;;5.55;0.30;;;8.20;99.90;;;;;;6095631;23;20020;-80
2022/02/19 11:50:40;;;;;;;6.55;0.40;;;8.10;99.90;;;;;;6094656;23;20060;-81
2022/02/19 11:53:21;;;;;;;8.48;0.40;;;8.00;99.90;;;;;;6095513;23;20076;-81
2022/02/19 11:55:47;;;;;;;6.15;0.30;;;8.10;99.90;;;;;;6145042;23;20017;-81
2022/02/19 11:58:16;;;;;;;11.40;0.63;;;7.90;99.90;;;;;;6118957;23;20060;-81
2022/02/19 12:00:53;;;;;;;4.95;0.32;;;8.20;99.90;;;;;;6095241;23;20009;-82
2022/02/19 12:03:26;;;;;;;3.05;0.30;;;8.20;99.90;;;;;;6095871;23;20346;-78
2022/02/19 12:06:11;;;;;;;7.25;0.80;;;8.50;99.90;;;;;;6094890;23;20020;-81
2022/02/19 12:08:49;;;;;;;2.88;0.30;;;8.20;99.90;;;;;;6118685;23;20022;-81
2022/02/19 12:11:17;;;;;;;7.07;0.30;;;8.30;99.90;;;;;;6094510;23;20506;-82
2022/02/19 12:13:45;;;;;;;4.18;0.40;;;8.70;99.90;;;;;;6144974;23;20025;-82
2022/02/19 12:16:31;;;;;;;11.10;0.60;;;8.90;99.90;;;;;;6070856;23;20017;-81
2022/02/19 12:19:09;;;;;;;4.72;0.30;;;8.90;99.90;;;;;;6119455;23;20767;-82
2022/02/19 12:21:42;;;;;;;4.80;0.40;;;8.60;99.90;;;;;;6119143;23;20411;-82
2022/02/19 12:24:18;;;;;;;5.90;0.80;;;8.60;99.90;;;;;;6109061;23;20139;-81
2022/02/19 12:26:56;;;;;;;7.88;0.70;;;8.40;99.90;;;;;;6145537;23;20465;-80
2022/02/19 12:29:30;;;;;;;7.55;0.40;;;8.20;99.90;;;;;;6119997;23;20012;-82
2022/02/19 12:32:03;;;;;;;5.63;0.40;;;8.00;99.90;;;;;;6143920;23;20013;-81
2022/02/19 12:34:30;;;;;;;2.92;0.30;;;8.20;99.90;;;;;;6142434;23;20446;-81
2022/02/19 12:36:59;;;;;;;6.93;0.30;;;8.40;99.90;;;;;;6118460;23;20001;-82
2022/02/19 12:39:26;;;;;;;5.85;0.63;;;8.50;99.90;;;;;;6144680;23;20044;-80
2022/02/19 12:41:56;;;;;;;4.25;0.30;;;8.50;99.90;;;;;;6120535;23;20439;-81
2022/02/19 12:44:22;;;;;;;2.67;0.30;;;8.50;99.90;;;;;;6144895;23;20060;-81
2022/02/19 12:46:52;;;;;;;5.60;0.30;;;8.40;99.90;;;;;;6144367;23;20017;-81
2022/02/19 12:49:19;;;;;;;5.90;0.28;;;8.40;99.90;;;;;;6120569;23;20021;-80
2022/02/19 12:51:56;;;;;;;5.95;0.40;;;8.70;99.90;;;;;;6119828;23;20036;-80
2022/02/19 12:54:43;;;;;;;5.57;0.40;;;8.60;99.90;;;;;;6145361;23;20025;-82
2022/02/19 12:57:11;;;;;;;4.25;0.38;;;8.50;99.90;;;;;;6120029;23;20009;-81
2022/02/19 12:59:38;;;;;;;4.22;0.45;;;8.10;99.90;;;;;;6144630;23;20068;-82
2022/02/19 13:02:07;;;;;;;4.15;0.32;;;8.20;99.90;;;;;;6119327;23;20653;-81
2022/02/19 13:04:35;;;;;;;3.53;0.40;;;8.20;99.90;;;;;;6144470;23;20080;-82
2022/02/19 13:07:02;;;;;;;3.30;0.47;;;8.30;99.90;;;;;;6145659;23;20013;-81
2022/02/19 13:09:28;;;;;;;6.68;0.30;;;8.30;99.90;;;;;;6146863;23;20324;-82
2022/02/19 13:11:56;;;;;;;5.22;0.30;;;8.20;99.90;;;;;;6121087;23;20013;-80
2022/02/19 13:14:25;;;;;;;7.95;0.50;;;7.90;99.90;;;;;;6095685;23;20029;-80
2022/02/19 13:17:08;;;;;;;4.38;0.35;;;8.00;99.90;;;;;;6143611;23;19998;-82